createdAt,value
2023-08-11T00:01:56.559Z,80.68
2023-08-11T00:04:24.204Z,80.89
2023-08-11T00:06:51.934Z,80.92
2023-08-11T00:09:18.540Z,80.71
2023-08-11T00:11:45.117Z,80.86
2023-08-11T00:14:12.786Z,80.88
2023-08-11T00:16:39.357Z,80.84
2023-08-11T00:19:06.966Z,80.93
2023-08-11T00:21:34.602Z,80.96
2023-08-11T00:24:03.267Z,81.21
2023-08-11T00:26:29.886Z,81.37
2023-08-11T00:28:57.489Z,81.34
2023-08-11T00:31:25.244Z,82.10
2023-08-11T00:33:53.975Z,81.77
2023-08-11T00:36:20.660Z,81.90
2023-08-11T00:38:48.298Z,81.63
2023-08-11T00:41:14.866Z,80.95
2023-08-11T00:43:42.509Z,81.15
2023-08-11T00:46:13.883Z,79.96
2023-08-11T00:48:43.653Z,80.29
2023-08-11T00:51:15.156Z,79.74
2023-08-11T00:53:43.060Z,79.96
2023-08-11T00:56:09.629Z,79.88
2023-08-11T00:58:36.389Z,80.16
2023-08-11T01:01:04.043Z,79.87
2023-08-11T01:03:30.710Z,79.57
2023-08-11T01:06:29.016Z,80.08
2023-08-11T01:09:25.020Z,80.42
2023-08-11T01:12:17.636Z,80.06
2023-08-11T01:14:58.506Z,78.82
2023-08-11T01:17:25.860Z,78.83
2023-08-11T01:19:52.612Z,79.75
2023-08-11T01:22:25.587Z,79.63
2023-08-11T01:24:53.071Z,79.07
2023-08-11T01:27:20.945Z,80.05
2023-08-11T01:29:48.614Z,80.23
2023-08-11T01:32:15.183Z,79.27
2023-08-11T01:34:42.833Z,79.62
2023-08-11T01:37:09.677Z,80.39
2023-08-11T01:39:36.601Z,79.76
2023-08-11T01:42:05.222Z,80.30
2023-08-11T01:44:31.988Z,80.08
2023-08-11T01:47:00.302Z,81.24
2023-08-11T01:49:27.614Z,80.92
2023-08-11T01:51:56.582Z,81.29
2023-08-11T01:54:23.546Z,81.09
2023-08-11T01:56:51.858Z,80.95
2023-08-11T01:59:18.730Z,81.93
2023-08-11T02:01:46.375Z,82.11
2023-08-11T02:04:14.290Z,82.42
2023-08-11T02:06:42.432Z,81.57
2023-08-11T02:09:09.228Z,81.89
2023-08-11T02:11:39.827Z,82.08
2023-08-11T02:14:07.993Z,81.24
2023-08-11T02:16:34.725Z,80.98
2023-08-11T02:19:01.509Z,81.63
2023-08-11T02:21:30.078Z,81.87
2023-08-11T02:23:56.684Z,81.06
2023-08-11T02:26:24.753Z,81.46
2023-08-11T02:28:51.508Z,81.95
2023-08-11T02:31:19.494Z,81.31
2023-08-11T02:33:46.879Z,80.86
2023-08-11T02:36:14.423Z,80.63
2023-08-11T02:38:42.296Z,80.57
2023-08-11T02:41:08.913Z,79.96
2023-08-11T02:43:36.602Z,81.01
2023-08-11T02:46:03.293Z,79.89
2023-08-11T02:48:30.907Z,79.68
2023-08-11T02:50:57.469Z,79.56
2023-08-11T02:53:25.142Z,79.79
2023-08-11T02:55:51.858Z,79.44
2023-08-11T02:58:19.506Z,78.72
2023-08-11T03:00:46.220Z,79.36
2023-08-11T03:03:14.017Z,78.60
2023-08-11T03:05:41.727Z,77.61
2023-08-11T03:08:09.329Z,78.98
2023-08-11T03:10:43.264Z,78.05
2023-08-11T03:13:23.724Z,78.19
2023-08-11T03:15:50.463Z,78.02
2023-08-11T03:18:17.113Z,78.20
2023-08-11T03:20:44.744Z,78.57
2023-08-11T03:23:11.356Z,77.92
2023-08-11T03:25:39.015Z,78.64
2023-08-11T03:28:05.788Z,78.15
2023-08-11T03:30:32.379Z,78.34
2023-08-11T03:33:00.118Z,79.48
2023-08-11T03:35:26.748Z,77.87
2023-08-11T03:37:54.477Z,78.51
2023-08-11T03:40:21.136Z,78.72
2023-08-11T03:42:48.762Z,78.34
2023-08-11T03:45:15.492Z,77.70
2023-08-11T03:47:44.533Z,77.92
2023-08-11T03:50:11.879Z,77.15
2023-08-11T03:52:39.878Z,77.94
2023-08-11T03:55:06.654Z,76.98
2023-08-11T03:57:34.301Z,77.60
2023-08-11T04:00:00.919Z,78.89
2023-08-11T04:02:30.248Z,77.96
2023-08-11T04:04:56.846Z,78.10
2023-08-11T04:07:24.480Z,77.17
2023-08-11T04:09:51.044Z,77.72
2023-08-11T04:12:17.615Z,77.40
2023-08-11T04:14:45.242Z,77.89
2023-08-11T04:17:11.808Z,78.17
2023-08-11T04:19:39.414Z,77.19
2023-08-11T04:22:06.253Z,78.21
2023-08-11T04:24:34.062Z,78.73
2023-08-11T04:27:00.728Z,78.23
2023-08-11T04:29:27.466Z,78.30
2023-08-11T04:31:55.072Z,77.47
2023-08-11T04:34:21.697Z,77.87
2023-08-11T04:36:48.305Z,77.70
2023-08-11T04:39:16.014Z,77.91
2023-08-11T04:41:43.675Z,78.92
2023-08-11T04:44:11.359Z,78.94
2023-08-11T04:46:39.070Z,77.49
2023-08-11T04:49:05.663Z,78.30
2023-08-11T04:51:33.273Z,77.64
2023-08-11T04:53:59.913Z,79.35
2023-08-11T04:56:27.646Z,77.79
2023-08-11T04:58:56.136Z,76.51
2023-08-11T05:01:23.353Z,77.45
2023-08-11T05:03:51.032Z,76.99
2023-08-11T05:06:19.293Z,78.27
2023-08-11T05:08:47.113Z,77.97
2023-08-11T05:11:14.954Z,77.60
2023-08-11T05:13:41.506Z,77.03
2023-08-11T05:16:09.215Z,77.63
2023-08-11T05:18:43.505Z,77.06
2023-08-11T05:21:11.636Z,77.52
2023-08-11T05:23:38.257Z,77.55
2023-08-11T05:26:05.923Z,78.13
2023-08-11T05:28:32.495Z,79.20
2023-08-11T05:30:59.076Z,77.74
2023-08-11T05:33:26.693Z,78.97
2023-08-11T05:35:53.270Z,79.49
2023-08-11T05:38:24.692Z,78.25
2023-08-11T05:40:52.324Z,78.42
2023-08-11T05:43:19.083Z,78.30
2023-08-11T05:45:45.714Z,77.15
2023-08-11T05:48:13.362Z,77.97
2023-08-11T05:50:40.404Z,77.15
2023-08-11T05:53:08.066Z,77.61
2023-08-11T05:55:34.673Z,76.94
2023-08-11T05:58:01.408Z,78.27
2023-08-11T06:00:29.103Z,76.77
2023-08-11T06:02:56.817Z,77.18
2023-08-11T06:05:23.524Z,76.40
2023-08-11T06:08:03.940Z,76.33
2023-08-11T06:10:34.581Z,75.71
2023-08-11T06:13:01.293Z,75.36
2023-08-11T06:15:27.936Z,74.81
2023-08-11T06:17:55.654Z,74.97
2023-08-11T06:20:38.617Z,74.65
2023-08-11T06:23:06.093Z,74.97
2023-08-11T06:25:33.761Z,75.33
2023-08-11T06:28:00.365Z,74.35
2023-08-11T06:30:26.991Z,75.65
2023-08-11T06:32:54.662Z,74.50
2023-08-11T06:35:21.489Z,75.45
2023-08-11T06:37:48.254Z,74.77
2023-08-11T06:40:15.962Z,74.43
2023-08-11T06:42:43.659Z,73.82
2023-08-11T06:45:10.815Z,74.82
2023-08-11T06:47:38.808Z,73.53
2023-08-11T06:50:05.914Z,74.66
2023-08-11T06:52:33.585Z,71.83
2023-08-11T06:55:01.249Z,72.81
2023-08-11T06:57:27.872Z,71.30
2023-08-11T06:59:55.488Z,71.17
2023-08-11T07:02:22.134Z,71.78
2023-08-11T07:04:49.120Z,71.34
2023-08-11T07:07:16.787Z,71.59
2023-08-11T07:09:43.391Z,70.36
2023-08-11T07:12:09.979Z,71.07
2023-08-11T07:14:37.640Z,69.70
2023-08-11T07:17:05.342Z,69.38
2023-08-11T07:19:32.001Z,70.62
2023-08-11T07:21:59.662Z,69.66
2023-08-11T07:24:26.232Z,69.34
2023-08-11T07:26:52.830Z,68.71
2023-08-11T07:29:20.574Z,70.72
2023-08-11T07:31:47.176Z,70.13
2023-08-11T07:34:14.826Z,73.39
2023-08-11T07:36:41.553Z,82.78
2023-08-11T07:39:22.248Z,75.34
2023-08-11T07:41:52.672Z,71.22
2023-08-11T07:44:20.454Z,74.89
2023-08-11T07:46:47.073Z,75.13
2023-08-11T07:49:13.843Z,73.61
2023-08-11T07:51:41.679Z,77.35
2023-08-11T07:54:08.352Z,68.73
2023-08-11T07:56:36.220Z,70.47
2023-08-11T07:59:02.858Z,69.95
2023-08-11T08:01:30.653Z,68.24
2023-08-11T08:03:57.429Z,68.47
2023-08-11T08:06:24.126Z,66.64
2023-08-11T08:08:51.804Z,67.90
2023-08-11T08:11:19.871Z,67.63
2023-08-11T08:13:46.452Z,67.32
2023-08-11T08:16:13.270Z,65.56
2023-08-11T08:18:40.966Z,67.26
2023-08-11T08:21:07.518Z,66.95
2023-08-11T08:23:35.202Z,66.95
2023-08-11T08:26:01.862Z,66.45
2023-08-11T08:28:31.427Z,66.08
2023-08-11T08:30:59.252Z,66.03
2023-08-11T08:33:26.880Z,65.46
2023-08-11T08:35:53.459Z,66.40
2023-08-11T08:38:21.074Z,66.26
2023-08-11T08:40:48.123Z,66.30
2023-08-11T08:43:16.063Z,65.90
2023-08-11T08:45:44.889Z,65.40
2023-08-11T08:48:21.593Z,64.92
2023-08-11T08:50:49.300Z,64.88
2023-08-11T08:53:16.222Z,64.40
2023-08-11T08:55:44.006Z,64.74
2023-08-11T08:58:10.580Z,64.46
2023-08-11T09:00:38.204Z,63.34
2023-08-11T09:03:05.945Z,63.90
2023-08-11T09:05:34.318Z,64.41
2023-08-11T09:08:00.888Z,63.70
2023-08-11T09:10:29.428Z,63.46
2023-08-11T09:12:57.089Z,63.39
2023-08-11T09:15:23.725Z,63.05
2023-08-11T09:17:52.815Z,62.96
2023-08-11T09:20:19.503Z,62.68
2023-08-11T09:22:47.334Z,63.17
2023-08-11T09:25:13.928Z,62.74
2023-08-11T09:27:40.583Z,61.53
2023-08-11T09:30:10.909Z,62.03
2023-08-11T09:32:38.629Z,60.38
2023-08-11T09:35:08.925Z,60.79
2023-08-11T09:37:36.138Z,60.20
2023-08-11T09:40:04.222Z,59.90
2023-08-11T09:42:30.944Z,60.21
2023-08-11T09:44:57.507Z,59.78
2023-08-11T09:47:25.163Z,59.51
2023-08-11T09:49:51.771Z,60.68
2023-08-11T09:52:20.032Z,59.34
2023-08-11T09:54:51.705Z,59.20
2023-08-11T09:57:19.733Z,59.20
2023-08-11T09:59:48.524Z,59.77
2023-08-11T10:02:22.721Z,59.74
2023-08-11T10:04:56.378Z,60.73
2023-08-11T10:07:26.158Z,59.13
2023-08-11T10:09:53.972Z,59.58
2023-08-11T10:12:20.661Z,59.57
2023-08-11T10:14:48.470Z,59.43
2023-08-11T10:17:15.433Z,59.35
2023-08-11T10:19:44.219Z,59.48
2023-08-11T10:22:12.044Z,60.05
2023-08-11T10:24:40.313Z,59.62
2023-08-11T10:27:09.108Z,59.27
2023-08-11T10:29:40.294Z,59.19
2023-08-11T10:32:07.183Z,59.92
2023-08-11T10:34:34.042Z,59.71
2023-08-11T10:37:01.631Z,58.98
2023-08-11T10:39:30.252Z,58.90
2023-08-11T10:41:58.936Z,59.50
2023-08-11T10:44:29.245Z,58.82
2023-08-11T10:46:59.670Z,58.69
2023-08-11T10:49:34.403Z,58.25
2023-08-11T10:52:03.483Z,58.08
2023-08-11T10:54:30.056Z,58.92
2023-08-11T10:57:01.995Z,58.99
2023-08-11T10:59:30.324Z,58.08
2023-08-11T11:01:59.179Z,57.34
2023-08-11T11:04:29.152Z,57.78
2023-08-11T11:06:56.834Z,57.53
2023-08-11T11:09:23.414Z,57.35
2023-08-11T11:11:51.682Z,57.65
2023-08-11T11:14:19.796Z,58.83
2023-08-11T11:16:48.302Z,57.23
2023-08-11T11:19:14.898Z,57.53
2023-08-11T11:21:42.612Z,57.51
2023-08-11T11:24:10.271Z,56.71
2023-08-11T11:26:36.968Z,56.46
2023-08-11T11:29:06.914Z,57.16
2023-08-11T11:31:36.235Z,57.15
2023-08-11T11:34:08.035Z,56.87
2023-08-11T11:36:34.644Z,56.30
2023-08-11T11:39:04.824Z,55.98
2023-08-11T11:41:33.018Z,57.21
2023-08-11T11:43:59.930Z,57.43
2023-08-11T11:46:27.872Z,57.54
2023-08-11T11:48:55.301Z,57.30
2023-08-11T11:51:28.569Z,58.07
2023-08-11T11:53:56.507Z,57.90
2023-08-11T11:56:24.441Z,57.91
2023-08-11T11:58:51.045Z,57.69
2023-08-11T12:01:24.442Z,57.34
2023-08-11T12:03:51.941Z,58.11
2023-08-11T12:06:19.759Z,57.73
2023-08-11T12:08:50.736Z,57.12
2023-08-11T12:11:22.616Z,55.92
2023-08-11T12:13:50.278Z,56.23
2023-08-11T12:16:16.981Z,55.09
2023-08-11T12:18:43.988Z,55.09
2023-08-11T12:21:12.473Z,54.98
2023-08-11T12:23:39.090Z,55.52
2023-08-11T12:26:06.722Z,54.94
2023-08-11T12:28:33.300Z,53.79
2023-08-11T12:31:01.095Z,54.09
2023-08-11T12:33:28.554Z,54.24
2023-08-11T12:35:56.354Z,55.08
2023-08-11T12:38:22.925Z,53.76
2023-08-11T12:40:50.817Z,53.66
2023-08-11T12:43:17.568Z,54.78
2023-08-11T12:45:46.385Z,54.89
2023-08-11T12:48:13.473Z,54.49
2023-08-11T12:50:41.529Z,54.45
2023-08-11T12:53:10.108Z,54.19
2023-08-11T12:55:36.937Z,54.54
2023-08-11T12:58:04.844Z,54.44
2023-08-11T13:00:32.188Z,54.78
2023-08-11T13:03:00.215Z,55.40
2023-08-11T13:05:26.996Z,54.96
2023-08-11T13:07:53.555Z,55.49
2023-08-11T13:10:21.201Z,55.28
2023-08-11T13:12:47.932Z,55.65
2023-08-11T13:15:15.551Z,54.26
2023-08-11T13:17:42.177Z,54.51
2023-08-11T13:20:11.156Z,54.36
2023-08-11T13:22:38.207Z,54.82
2023-08-11T13:25:05.354Z,54.46
2023-08-11T13:27:33.153Z,54.91
2023-08-11T13:30:00.880Z,54.44
2023-08-11T13:32:29.177Z,54.42
2023-08-11T13:34:55.764Z,54.52
2023-08-11T13:37:23.368Z,54.38
2023-08-11T13:39:50.027Z,53.44
2023-08-11T13:42:18.993Z,52.54
2023-08-11T13:44:46.630Z,52.54
2023-08-11T13:47:13.190Z,52.32
2023-08-11T13:49:40.792Z,51.85
2023-08-11T13:52:07.664Z,51.94
2023-08-11T13:54:34.576Z,51.97
2023-08-11T13:57:02.253Z,52.58
2023-08-11T13:59:28.798Z,52.52
2023-08-11T14:01:56.403Z,52.25
2023-08-11T14:04:23.005Z,52.68
2023-08-11T14:06:50.654Z,50.60
2023-08-11T14:09:18.275Z,50.43
2023-08-11T14:11:44.853Z,50.39
2023-08-11T14:14:11.411Z,50.09
2023-08-11T14:16:39.044Z,49.91
2023-08-11T14:19:06.767Z,49.76
2023-08-11T14:21:33.347Z,49.43
2023-08-11T14:24:00.959Z,50.19
2023-08-11T14:26:27.577Z,50.45
2023-08-11T14:28:55.156Z,50.96
2023-08-11T14:31:21.734Z,50.26
2023-08-11T14:33:49.376Z,50.97
2023-08-11T14:36:16.070Z,50.83
2023-08-11T14:38:42.654Z,50.66
2023-08-11T14:41:10.289Z,50.87
2023-08-11T14:43:36.853Z,52.20
2023-08-11T14:46:04.478Z,50.61
2023-08-11T14:48:31.061Z,51.71
2023-08-11T14:50:58.987Z,51.07
2023-08-11T14:53:26.585Z,52.31
2023-08-11T14:55:53.173Z,51.45
2023-08-11T14:58:20.834Z,51.42
2023-08-11T15:00:47.438Z,51.53
2023-08-11T15:03:16.309Z,51.75
2023-08-11T15:05:44.190Z,52.19
2023-08-11T15:08:11.902Z,52.41
2023-08-11T15:10:38.516Z,51.67
2023-08-11T15:13:06.331Z,51.90
2023-08-11T15:15:33.279Z,52.32
2023-08-11T15:18:00.991Z,52.64
2023-08-11T15:20:27.592Z,52.10
2023-08-11T15:22:54.157Z,52.65
2023-08-11T15:25:21.775Z,52.78
2023-08-11T15:27:48.327Z,53.31
2023-08-11T15:30:14.886Z,54.35
2023-08-11T15:32:42.758Z,55.20
2023-08-11T15:35:09.417Z,54.97
2023-08-11T15:37:37.164Z,54.61
2023-08-11T15:40:05.465Z,55.01
2023-08-11T15:42:33.393Z,54.58
2023-08-11T15:45:00.035Z,54.86
2023-08-11T15:47:26.931Z,54.26
2023-08-11T15:49:54.656Z,54.12
2023-08-11T15:52:21.212Z,53.26
2023-08-11T15:54:47.753Z,53.01
2023-08-11T15:57:15.340Z,52.71
2023-08-11T15:59:41.937Z,52.69
2023-08-11T16:02:11.063Z,53.49
2023-08-11T16:04:38.138Z,52.58
2023-08-11T16:07:05.233Z,53.12
2023-08-11T16:09:32.857Z,52.23
2023-08-11T16:12:00.504Z,52.23
2023-08-11T16:14:27.080Z,53.05
2023-08-11T16:16:54.685Z,52.50
2023-08-11T16:19:22.687Z,52.87
2023-08-11T16:21:49.316Z,53.57
2023-08-11T16:24:17.008Z,52.89
2023-08-11T16:26:43.578Z,53.23
2023-08-11T16:29:10.166Z,53.76
2023-08-11T16:31:37.894Z,54.55
2023-08-11T16:34:04.649Z,54.62
2023-08-11T16:36:32.332Z,55.30
2023-08-11T16:38:59.941Z,55.47
2023-08-11T16:41:26.568Z,56.43
2023-08-11T16:43:54.173Z,55.17
2023-08-11T16:46:20.766Z,54.85
2023-08-11T16:48:48.906Z,53.89
2023-08-11T16:51:15.488Z,53.30
2023-08-11T16:53:43.410Z,52.60
2023-08-11T16:56:10.191Z,53.84
2023-08-11T16:58:37.326Z,53.31
2023-08-11T17:01:05.072Z,53.01
2023-08-11T17:03:32.896Z,54.58
2023-08-11T17:05:59.680Z,52.78
2023-08-11T17:08:27.401Z,52.66
2023-08-11T17:10:54.010Z,51.77
2023-08-11T17:13:21.671Z,51.57
2023-08-11T17:15:49.318Z,51.25
2023-08-11T17:18:15.902Z,51.15
2023-08-11T17:20:43.597Z,51.21
2023-08-11T17:23:10.172Z,51.17
2023-08-11T17:25:37.825Z,52.60
2023-08-11T17:28:04.823Z,52.56
2023-08-11T17:30:32.445Z,52.34
2023-08-11T17:32:59.076Z,54.20
2023-08-11T17:35:25.727Z,53.62
2023-08-11T17:37:53.339Z,54.81
2023-08-11T17:40:19.982Z,55.16
2023-08-11T17:42:47.642Z,55.99
2023-08-11T17:45:14.224Z,55.96
2023-08-11T17:47:41.861Z,56.60
2023-08-11T17:50:08.686Z,56.27
2023-08-11T17:52:36.298Z,57.15
2023-08-11T17:55:02.860Z,55.62
2023-08-11T17:57:30.450Z,54.92
2023-08-11T17:59:58.112Z,54.64
2023-08-11T18:02:24.753Z,54.50
2023-08-11T18:04:52.397Z,53.66
2023-08-11T18:07:19.995Z,53.60
2023-08-11T18:09:46.592Z,53.40
2023-08-11T18:12:13.547Z,52.66
2023-08-11T18:14:53.886Z,52.18
2023-08-11T18:17:21.159Z,52.40
2023-08-11T18:19:48.805Z,52.94
2023-08-11T18:22:16.447Z,53.17
2023-08-11T18:24:43.001Z,54.00
2023-08-11T18:27:10.677Z,54.71
2023-08-11T18:29:37.330Z,54.01
2023-08-11T18:32:05.314Z,53.45
2023-08-11T18:34:33.147Z,53.35
2023-08-11T18:36:59.718Z,53.83
2023-08-11T18:39:26.310Z,54.49
2023-08-11T18:41:53.972Z,54.92
2023-08-11T18:44:20.524Z,56.18
2023-08-11T18:46:48.186Z,56.43
2023-08-11T18:49:14.797Z,56.81
2023-08-11T18:51:42.448Z,57.42
2023-08-11T18:54:10.143Z,58.11
2023-08-11T18:56:37.378Z,58.80
2023-08-11T18:59:05.172Z,59.23
2023-08-11T19:01:31.775Z,59.57
2023-08-11T19:03:59.529Z,60.03
2023-08-11T19:06:28.222Z,59.88
2023-08-11T19:08:54.797Z,60.48
2023-08-11T19:11:22.444Z,60.98
2023-08-11T19:13:49.575Z,61.26
2023-08-11T19:16:16.233Z,61.14
2023-08-11T19:18:44.354Z,60.86
2023-08-11T19:21:10.928Z,61.78
2023-08-11T19:23:37.509Z,62.10
2023-08-11T19:26:05.244Z,63.41
2023-08-11T19:28:31.807Z,63.48
2023-08-11T19:31:00.445Z,62.74
2023-08-11T19:33:28.225Z,63.16
2023-08-11T19:35:55.244Z,62.88
2023-08-11T19:38:21.842Z,63.21
2023-08-11T19:40:49.948Z,63.37
2023-08-11T19:43:16.575Z,63.74
2023-08-11T19:45:51.315Z,64.13
2023-08-11T19:48:18.117Z,63.96
2023-08-11T19:50:48.966Z,64.92
2023-08-11T19:53:17.006Z,63.83
2023-08-11T19:55:43.972Z,63.94
2023-08-11T19:58:11.591Z,64.38
2023-08-11T20:00:40.456Z,64.10
2023-08-11T20:03:08.351Z,65.08
2023-08-11T20:05:42.957Z,63.70
2023-08-11T20:08:09.520Z,64.20
2023-08-11T20:10:37.173Z,64.62
2023-08-11T20:13:04.530Z,64.90
2023-08-11T20:15:33.379Z,64.49
2023-08-11T20:17:59.984Z,65.38
2023-08-11T20:20:27.607Z,64.22
2023-08-11T20:22:54.159Z,65.11
2023-08-11T20:25:21.762Z,64.66
2023-08-11T20:27:49.425Z,65.72
2023-08-11T20:30:16.033Z,64.80
2023-08-11T20:32:43.662Z,64.60
2023-08-11T20:35:10.366Z,64.99
2023-08-11T20:37:38.117Z,65.16
2023-08-11T20:40:05.095Z,65.81
2023-08-11T20:42:32.733Z,65.29
2023-08-11T20:44:59.295Z,65.69
2023-08-11T20:47:25.957Z,65.28
2023-08-11T20:49:53.596Z,65.92
2023-08-11T20:52:20.441Z,65.70
2023-08-11T20:54:46.991Z,66.47
2023-08-11T20:57:16.170Z,66.42
2023-08-11T20:59:43.831Z,65.99
2023-08-11T21:02:11.476Z,65.78
2023-08-11T21:04:38.078Z,66.65
2023-08-11T21:07:05.735Z,66.21
2023-08-11T21:09:32.313Z,65.17
2023-08-11T21:11:59.968Z,66.16
2023-08-11T21:14:26.538Z,66.20
2023-08-11T21:16:53.143Z,66.76
2023-08-11T21:19:20.794Z,66.92
2023-08-11T21:21:47.466Z,66.78
2023-08-11T21:24:15.805Z,66.91
2023-08-11T21:26:42.392Z,66.50
2023-08-11T21:29:09.540Z,66.82
2023-08-11T21:31:37.166Z,66.30
2023-08-11T21:34:06.078Z,66.41
2023-08-11T21:36:34.484Z,67.45
2023-08-11T21:39:01.633Z,66.83
2023-08-11T21:41:30.114Z,66.06
2023-08-11T21:43:56.695Z,67.06
2023-08-11T21:46:24.507Z,67.70
2023-08-11T21:48:51.094Z,67.54
2023-08-11T21:51:17.675Z,67.52
2023-08-11T21:53:45.316Z,68.12
2023-08-11T21:56:12.991Z,68.15
2023-08-11T21:58:40.585Z,68.51
2023-08-11T22:01:07.169Z,68.61
2023-08-11T22:03:34.808Z,67.79
2023-08-11T22:06:02.446Z,68.85
2023-08-11T22:08:29.032Z,68.45
2023-08-11T22:10:56.673Z,69.47
2023-08-11T22:13:23.335Z,69.91
2023-08-11T22:15:51.083Z,69.08
2023-08-11T22:18:17.729Z,69.92
2023-08-11T22:20:44.321Z,70.44
2023-08-11T22:23:11.994Z,70.00
2023-08-11T22:25:39.689Z,69.51
2023-08-11T22:28:06.420Z,69.96
2023-08-11T22:30:34.261Z,70.98
2023-08-11T22:33:01.909Z,71.12
2023-08-11T22:35:28.545Z,70.35
2023-08-11T22:37:57.227Z,70.41
2023-08-11T22:40:23.838Z,69.71
2023-08-11T22:42:51.458Z,69.34
2023-08-11T22:45:18.048Z,69.35
2023-08-11T22:47:45.957Z,69.59
2023-08-11T22:50:14.878Z,69.55
2023-08-11T22:52:42.550Z,69.75
2023-08-11T22:55:09.196Z,69.41
2023-08-11T22:57:36.807Z,69.68
2023-08-11T23:00:04.729Z,68.88
2023-08-11T23:02:32.454Z,70.17
2023-08-11T23:05:00.077Z,68.49
2023-08-11T23:07:26.820Z,69.21
2023-08-11T23:09:54.485Z,69.37
2023-08-11T23:12:22.462Z,68.71
2023-08-11T23:14:49.059Z,68.09
2023-08-11T23:17:16.719Z,70.31
2023-08-11T23:19:43.458Z,69.45
2023-08-11T23:22:11.113Z,69.91
2023-08-11T23:24:37.658Z,68.93
2023-08-11T23:27:04.410Z,69.20
2023-08-11T23:29:32.068Z,68.86
2023-08-11T23:31:58.759Z,67.83
2023-08-11T23:34:25.344Z,67.55
2023-08-11T23:36:52.978Z,67.54
2023-08-11T23:39:20.602Z,67.81
2023-08-11T23:41:47.189Z,68.35
2023-08-11T23:44:14.806Z,67.95
2023-08-11T23:46:41.388Z,68.39
2023-08-11T23:49:08.063Z,68.71
2023-08-11T23:51:35.790Z,69.17
2023-08-11T23:54:02.511Z,68.19
2023-08-11T23:56:30.151Z,68.94
2023-08-11T23:58:56.781Z,68.98
